UAL1778 KORD-KOMA
Flight info
| Callsign | UAL1778 |
|---|---|
| Flight time | 1h 9m |
| Altitude | 34000 |
| Route | OLINN OREOS OBENE DSM LANTK2 |
| Aircraft | A21N/M-SDE2E3FGHIRWXY/LB1 |
Departure
| Time | 2026-05-04 19:08 |
|---|---|
| Airport | Chicago O'Hare International Airport (KORD) |
Arrival
| Time | 2026-05-04 20:17 |
|---|---|
| Airport | Eppley Airfield (KOMA) |
| Time | Latitude | Longitude | Altitude | Speed | Heading |
|---|---|---|---|---|---|
| 2026-05-04 18:29 | 41.98139 | -87.90686 | 674 ft | 0 kts | 99° |
| 2026-05-04 18:56 | 41.98140 | -87.90694 | 674 ft | 4 kts | 100° |
| 2026-05-04 18:56 | 41.98142 | -87.90728 | 674 ft | 3 kts | 79° |
| 2026-05-04 18:57 | 41.98137 | -87.90758 | 673 ft | 4 kts | 68° |
| 2026-05-04 18:57 | 41.98125 | -87.90778 | 674 ft | 4 kts | 2° |
| 2026-05-04 18:57 | 41.98101 | -87.90776 | 673 ft | 4 kts | 354° |
| 2026-05-04 18:57 | 41.98095 | -87.90775 | 674 ft | 3 kts | 354° |
| 2026-05-04 19:00 | 41.98105 | -87.90776 | 674 ft | 4 kts | 354° |
| 2026-05-04 19:00 | 41.98142 | -87.90781 | 674 ft | 8 kts | 354° |
| 2026-05-04 19:00 | 41.98246 | -87.90793 | 674 ft | 16 kts | 8° |
| 2026-05-04 19:01 | 41.98289 | -87.90700 | 673 ft | 14 kts | 89° |
| 2026-05-04 19:01 | 41.98289 | -87.90565 | 673 ft | 15 kts | 90° |
| 2026-05-04 19:01 | 41.98288 | -87.90414 | 674 ft | 17 kts | 90° |
| 2026-05-04 19:01 | 41.98288 | -87.90247 | 674 ft | 19 kts | 89° |
| 2026-05-04 19:02 | 41.98289 | -87.90067 | 674 ft | 20 kts | 89° |
| 2026-05-04 19:02 | 41.98289 | -87.89871 | 676 ft | 22 kts | 90° |
| 2026-05-04 19:02 | 41.98289 | -87.89666 | 675 ft | 17 kts | 90° |
| 2026-05-04 19:02 | 41.98251 | -87.89520 | 675 ft | 18 kts | 140° |
| 2026-05-04 19:03 | 41.98156 | -87.89397 | 674 ft | 20 kts | 134° |
| 2026-05-04 19:03 | 41.98063 | -87.89339 | 674 ft | 16 kts | 211° |
| 2026-05-04 19:03 | 41.97983 | -87.89455 | 674 ft | 18 kts | 230° |
| 2026-05-04 19:03 | 41.97871 | -87.89527 | 674 ft | 19 kts | 178° |
| 2026-05-04 19:04 | 41.97731 | -87.89525 | 674 ft | 21 kts | 180° |
| 2026-05-04 19:04 | 41.97581 | -87.89525 | 674 ft | 22 kts | 179° |
| 2026-05-04 19:04 | 41.97422 | -87.89531 | 674 ft | 24 kts | 195° |
| 2026-05-04 19:04 | 41.97303 | -87.89656 | 673 ft | 22 kts | 239° |
| 2026-05-04 19:05 | 41.97227 | -87.89842 | 674 ft | 23 kts | 245° |
| 2026-05-04 19:05 | 41.97205 | -87.90046 | 674 ft | 14 kts | 270° |
| 2026-05-04 19:05 | 41.97165 | -87.90133 | 674 ft | 13 kts | 183° |
| 2026-05-04 19:05 | 41.97068 | -87.90126 | 674 ft | 15 kts | 155° |
| 2026-05-04 19:06 | 41.97041 | -87.89991 | 675 ft | 17 kts | 90° |
| 2026-05-04 19:06 | 41.97042 | -87.89826 | 675 ft | 18 kts | 90° |
| 2026-05-04 19:06 | 41.97041 | -87.89647 | 675 ft | 20 kts | 99° |
| 2026-05-04 19:06 | 41.96973 | -87.89555 | 673 ft | 15 kts | 175° |
| 2026-05-04 19:07 | 41.96922 | -87.89559 | 677 ft | 5 kts | 198° |
| 2026-05-04 19:07 | 41.96905 | -87.89610 | 677 ft | 7 kts | 267° |
| 2026-05-04 19:07 | 41.96905 | -87.89864 | 676 ft | 60 kts | 269° |
| 2026-05-04 19:07 | 41.96902 | -87.90725 | 672 ft | 121 kts | 270° |
| 2026-05-04 19:08 | 41.96897 | -87.92055 | 712 ft | 158 kts | 271° |
| 2026-05-04 19:08 | 41.96920 | -87.93477 | 1355 ft | 149 kts | 265° |
| 2026-05-04 19:08 | 41.96896 | -87.94883 | 1910 ft | 157 kts | 263° |
| 2026-05-04 19:08 | 41.96817 | -87.96409 | 2350 ft | 171 kts | 261° |
| 2026-05-04 19:09 | 41.96695 | -87.98078 | 2836 ft | 189 kts | 261° |
| 2026-05-04 19:09 | 41.96568 | -87.99957 | 3178 ft | 220 kts | 263° |
| 2026-05-04 19:09 | 41.96431 | -88.02120 | 3696 ft | 241 kts | 263° |
| 2026-05-04 19:09 | 41.96288 | -88.04403 | 4489 ft | 249 kts | 263° |
| 2026-05-04 19:10 | 41.96145 | -88.06731 | 5371 ft | 250 kts | 263° |
| 2026-05-04 19:10 | 41.95998 | -88.09067 | 6261 ft | 253 kts | 264° |
| 2026-05-04 19:10 | 41.95850 | -88.11447 | 7094 ft | 257 kts | 265° |
| 2026-05-04 19:10 | 41.95701 | -88.13840 | 7956 ft | 258 kts | 264° |
| 2026-05-04 19:11 | 41.95551 | -88.16251 | 8824 ft | 260 kts | 265° |
| 2026-05-04 19:11 | 41.95400 | -88.18679 | 9701 ft | 261 kts | 264° |
| 2026-05-04 19:11 | 41.95244 | -88.21132 | 10367 ft | 270 kts | 264° |
| 2026-05-04 19:11 | 41.95081 | -88.23721 | 10745 ft | 287 kts | 264° |
| 2026-05-04 19:12 | 41.94910 | -88.26442 | 11285 ft | 296 kts | 264° |
| 2026-05-04 19:12 | 41.94552 | -88.32018 | 12788 ft | 303 kts | 264° |
| 2026-05-04 19:12 | 41.94433 | -88.33886 | 13324 ft | 304 kts | 264° |
| 2026-05-04 19:13 | 41.94249 | -88.36728 | 14053 ft | 306 kts | 264° |
| 2026-05-04 19:13 | 41.94063 | -88.39592 | 14730 ft | 309 kts | 264° |
| 2026-05-04 19:13 | 41.93874 | -88.42478 | 15391 ft | 313 kts | 264° |
| 2026-05-04 19:13 | 41.93681 | -88.45412 | 16040 ft | 317 kts | 265° |
| 2026-05-04 19:14 | 41.93487 | -88.48381 | 16692 ft | 321 kts | 265° |
| 2026-05-04 19:14 | 41.93289 | -88.51391 | 17343 ft | 326 kts | 265° |
| 2026-05-04 19:14 | 41.93088 | -88.54434 | 17974 ft | 330 kts | 265° |
| 2026-05-04 19:14 | 41.92884 | -88.57524 | 18527 ft | 333 kts | 265° |
| 2026-05-04 19:15 | 41.92676 | -88.60639 | 19088 ft | 336 kts | 265° |
| 2026-05-04 19:15 | 41.92463 | -88.63780 | 19663 ft | 339 kts | 265° |
| 2026-05-04 19:15 | 41.92178 | -88.67979 | 20411 ft | 343 kts | 265° |
| 2026-05-04 19:15 | 41.92030 | -88.70137 | 20785 ft | 345 kts | 265° |
| 2026-05-04 19:16 | 41.91810 | -88.73358 | 21341 ft | 348 kts | 265° |
| 2026-05-04 19:16 | 41.91590 | -88.76599 | 21898 ft | 350 kts | 265° |
| 2026-05-04 19:16 | 41.91369 | -88.79866 | 22441 ft | 353 kts | 265° |
| 2026-05-04 19:16 | 41.91222 | -88.83164 | 22970 ft | 356 kts | 268° |
| 2026-05-04 19:17 | 41.91117 | -88.86498 | 23438 ft | 359 kts | 268° |
| 2026-05-04 19:17 | 41.91015 | -88.89814 | 23873 ft | 361 kts | 268° |
| 2026-05-04 19:17 | 41.90911 | -88.93195 | 24319 ft | 364 kts | 268° |
| 2026-05-04 19:17 | 41.90803 | -88.96594 | 24755 ft | 366 kts | 268° |
| 2026-05-04 19:18 | 41.90691 | -89.00019 | 25183 ft | 368 kts | 268° |
| 2026-05-04 19:18 | 41.90582 | -89.03463 | 25598 ft | 371 kts | 268° |
| 2026-05-04 19:18 | 41.90471 | -89.06934 | 26024 ft | 373 kts | 268° |
| 2026-05-04 19:18 | 41.90355 | -89.10422 | 26441 ft | 375 kts | 268° |
| 2026-05-04 19:19 | 41.90238 | -89.13930 | 26841 ft | 378 kts | 268° |
| 2026-05-04 19:19 | 41.90121 | -89.17464 | 27238 ft | 380 kts | 268° |
| 2026-05-04 19:19 | 41.89974 | -89.21016 | 27629 ft | 383 kts | 266° |
| 2026-05-04 19:19 | 41.89663 | -89.24575 | 28003 ft | 385 kts | 264° |
| 2026-05-04 19:20 | 41.89311 | -89.28150 | 28363 ft | 388 kts | 264° |
| 2026-05-04 19:20 | 41.88958 | -89.31750 | 28729 ft | 390 kts | 264° |
| 2026-05-04 19:20 | 41.88607 | -89.35363 | 29094 ft | 392 kts | 264° |
| 2026-05-04 19:20 | 41.88249 | -89.39010 | 29427 ft | 395 kts | 264° |
| 2026-05-04 19:21 | 41.87895 | -89.42625 | 29737 ft | 397 kts | 264° |
| 2026-05-04 19:21 | 41.87531 | -89.46355 | 30030 ft | 398 kts | 264° |
| 2026-05-04 19:21 | 41.87174 | -89.49996 | 30321 ft | 400 kts | 264° |
| 2026-05-04 19:21 | 41.86810 | -89.53699 | 30607 ft | 401 kts | 264° |
| 2026-05-04 19:22 | 41.86447 | -89.57422 | 30918 ft | 402 kts | 264° |
| 2026-05-04 19:22 | 41.86087 | -89.61128 | 31283 ft | 401 kts | 264° |
| 2026-05-04 19:22 | 41.85721 | -89.64828 | 31651 ft | 399 kts | 263° |
| 2026-05-04 19:22 | 41.85354 | -89.68513 | 32007 ft | 398 kts | 263° |
| 2026-05-04 19:23 | 41.84988 | -89.72186 | 32350 ft | 397 kts | 263° |
| 2026-05-04 19:23 | 41.84647 | -89.75859 | 32692 ft | 396 kts | 264° |
| 2026-05-04 19:23 | 41.84333 | -89.79526 | 33024 ft | 395 kts | 264° |
| 2026-05-04 19:23 | 41.84019 | -89.83174 | 33342 ft | 393 kts | 264° |
| 2026-05-04 19:24 | 41.83697 | -89.86820 | 33581 ft | 394 kts | 264° |
| 2026-05-04 19:24 | 41.83044 | -89.94107 | 33603 ft | 393 kts | 264° |
| 2026-05-04 19:25 | 41.82392 | -90.01386 | 33574 ft | 393 kts | 264° |
| 2026-05-04 19:25 | 41.81734 | -90.08666 | 33583 ft | 393 kts | 264° |
| 2026-05-04 19:26 | 41.81067 | -90.15946 | 33591 ft | 393 kts | 264° |
| 2026-05-04 19:26 | 41.80396 | -90.23218 | 33590 ft | 393 kts | 264° |
| 2026-05-04 19:27 | 41.79726 | -90.30441 | 33590 ft | 393 kts | 264° |
| 2026-05-04 19:27 | 41.79048 | -90.37707 | 33591 ft | 393 kts | 264° |
| 2026-05-04 19:28 | 41.78363 | -90.44973 | 33593 ft | 393 kts | 264° |
| 2026-05-04 19:28 | 41.77683 | -90.52234 | 33585 ft | 393 kts | 263° |
| 2026-05-04 19:29 | 41.76994 | -90.59506 | 33583 ft | 395 kts | 263° |
| 2026-05-04 19:29 | 41.76303 | -90.66812 | 33589 ft | 395 kts | 264° |
| 2026-05-04 19:30 | 41.75615 | -90.74122 | 33585 ft | 395 kts | 263° |
| 2026-05-04 19:30 | 41.74917 | -90.81371 | 33584 ft | 395 kts | 263° |
| 2026-05-04 19:31 | 41.74204 | -90.88673 | 33578 ft | 395 kts | 263° |
| 2026-05-04 19:31 | 41.73487 | -90.95966 | 33571 ft | 395 kts | 263° |
| 2026-05-04 19:32 | 41.72766 | -91.03265 | 33568 ft | 395 kts | 263° |
| 2026-05-04 19:32 | 41.72042 | -91.10557 | 33578 ft | 395 kts | 263° |
| 2026-05-04 19:33 | 41.71314 | -91.17845 | 33585 ft | 395 kts | 263° |
| 2026-05-04 19:33 | 41.70583 | -91.25114 | 33595 ft | 394 kts | 263° |
| 2026-05-04 19:34 | 41.69844 | -91.32373 | 33600 ft | 394 kts | 263° |
| 2026-05-04 19:34 | 41.69103 | -91.39645 | 33606 ft | 394 kts | 263° |
| 2026-05-04 19:35 | 41.68359 | -91.46910 | 33614 ft | 394 kts | 263° |
| 2026-05-04 19:35 | 41.67610 | -91.54170 | 33610 ft | 394 kts | 263° |
| 2026-05-04 19:36 | 41.66858 | -91.61354 | 33607 ft | 392 kts | 263° |
| 2026-05-04 19:36 | 41.66100 | -91.68589 | 33608 ft | 392 kts | 263° |
| 2026-05-04 19:37 | 41.65341 | -91.75811 | 33603 ft | 392 kts | 263° |
| 2026-05-04 19:37 | 41.64576 | -91.83045 | 33597 ft | 392 kts | 263° |
| 2026-05-04 19:38 | 41.63805 | -91.90260 | 33579 ft | 392 kts | 263° |
| 2026-05-04 19:38 | 41.63034 | -91.97464 | 33576 ft | 391 kts | 263° |
| 2026-05-04 19:39 | 41.62259 | -92.04662 | 33570 ft | 391 kts | 263° |
| 2026-05-04 19:39 | 41.61479 | -92.11841 | 33573 ft | 391 kts | 263° |
| 2026-05-04 19:40 | 41.60692 | -92.19035 | 33575 ft | 391 kts | 263° |
| 2026-05-04 19:40 | 41.59908 | -92.26175 | 33575 ft | 391 kts | 263° |
| 2026-05-04 19:41 | 41.59116 | -92.33358 | 33581 ft | 390 kts | 263° |
| 2026-05-04 19:41 | 41.58319 | -92.40523 | 33590 ft | 390 kts | 263° |
| 2026-05-04 19:42 | 41.57517 | -92.47693 | 33600 ft | 390 kts | 263° |
| 2026-05-04 19:42 | 41.56712 | -92.54852 | 33597 ft | 390 kts | 263° |
| 2026-05-04 19:43 | 41.55899 | -92.62014 | 33601 ft | 390 kts | 263° |
| 2026-05-04 19:43 | 41.55085 | -92.69177 | 33594 ft | 390 kts | 263° |
| 2026-05-04 19:44 | 41.54262 | -92.76327 | 33601 ft | 390 kts | 263° |
| 2026-05-04 19:44 | 41.53445 | -92.83477 | 33591 ft | 390 kts | 263° |
| 2026-05-04 19:45 | 41.52618 | -92.90629 | 33594 ft | 390 kts | 263° |
| 2026-05-04 19:45 | 41.51790 | -92.97741 | 33591 ft | 391 kts | 263° |
| 2026-05-04 19:46 | 41.50953 | -93.04909 | 33595 ft | 391 kts | 263° |
| 2026-05-04 19:46 | 41.50107 | -93.12075 | 33593 ft | 391 kts | 263° |
| 2026-05-04 19:47 | 41.49263 | -93.19234 | 33591 ft | 390 kts | 263° |
| 2026-05-04 19:47 | 41.48411 | -93.26379 | 33551 ft | 387 kts | 263° |
| 2026-05-04 19:47 | 41.47994 | -93.29874 | 33255 ft | 377 kts | 263° |
| 2026-05-04 19:48 | 41.47584 | -93.33282 | 32983 ft | 368 kts | 263° |
| 2026-05-04 19:48 | 41.47182 | -93.36630 | 32708 ft | 365 kts | 263° |
| 2026-05-04 19:48 | 41.46786 | -93.39916 | 32441 ft | 363 kts | 263° |
| 2026-05-04 19:48 | 41.46382 | -93.43279 | 32171 ft | 362 kts | 262° |
| 2026-05-04 19:49 | 41.45986 | -93.46534 | 31881 ft | 360 kts | 262° |
| 2026-05-04 19:49 | 41.45588 | -93.49816 | 31442 ft | 356 kts | 262° |
| 2026-05-04 19:49 | 41.45194 | -93.53066 | 30953 ft | 354 kts | 262° |
| 2026-05-04 19:49 | 41.44803 | -93.56293 | 30457 ft | 351 kts | 262° |
| 2026-05-04 19:50 | 41.44413 | -93.59493 | 29983 ft | 349 kts | 262° |
| 2026-05-04 19:50 | 41.44022 | -93.62674 | 29499 ft | 346 kts | 262° |
| 2026-05-04 19:50 | 41.43816 | -93.65854 | 28947 ft | 344 kts | 271° |
| 2026-05-04 19:50 | 41.43946 | -93.69023 | 28438 ft | 341 kts | 274° |
| 2026-05-04 19:51 | 41.44132 | -93.72161 | 27959 ft | 338 kts | 274° |
| 2026-05-04 19:51 | 41.44315 | -93.75270 | 27496 ft | 335 kts | 274° |
| 2026-05-04 19:51 | 41.44491 | -93.78356 | 27048 ft | 332 kts | 274° |
| 2026-05-04 19:51 | 41.44663 | -93.81407 | 26598 ft | 329 kts | 274° |
| 2026-05-04 19:52 | 41.44833 | -93.84444 | 26136 ft | 327 kts | 274° |
| 2026-05-04 19:52 | 41.45001 | -93.87463 | 25681 ft | 326 kts | 274° |
| 2026-05-04 19:52 | 41.45168 | -93.90465 | 25247 ft | 324 kts | 274° |
| 2026-05-04 19:52 | 41.45331 | -93.93448 | 24821 ft | 321 kts | 273° |
| 2026-05-04 19:53 | 41.45490 | -93.96410 | 24396 ft | 320 kts | 273° |
| 2026-05-04 19:53 | 41.45649 | -93.99362 | 23934 ft | 319 kts | 273° |
| 2026-05-04 19:53 | 41.45807 | -94.02314 | 23494 ft | 319 kts | 273° |
| 2026-05-04 19:53 | 41.45965 | -94.05263 | 23026 ft | 318 kts | 273° |
| 2026-05-04 19:54 | 41.46118 | -94.08158 | 22536 ft | 316 kts | 273° |
| 2026-05-04 19:54 | 41.46272 | -94.11070 | 22073 ft | 314 kts | 273° |
| 2026-05-04 19:54 | 41.46424 | -94.13964 | 21620 ft | 312 kts | 273° |
| 2026-05-04 19:54 | 41.46576 | -94.16831 | 21173 ft | 309 kts | 273° |
| 2026-05-04 19:55 | 41.46727 | -94.19680 | 20726 ft | 307 kts | 274° |
| 2026-05-04 19:55 | 41.46875 | -94.22506 | 20294 ft | 304 kts | 274° |
| 2026-05-04 19:55 | 41.47019 | -94.25312 | 19889 ft | 301 kts | 274° |
| 2026-05-04 19:55 | 41.47161 | -94.28087 | 19490 ft | 299 kts | 274° |
| 2026-05-04 19:56 | 41.47303 | -94.30844 | 19103 ft | 297 kts | 274° |
| 2026-05-04 19:56 | 41.47445 | -94.33579 | 18699 ft | 295 kts | 274° |
| 2026-05-04 19:56 | 41.47583 | -94.36306 | 18314 ft | 294 kts | 274° |
| 2026-05-04 19:56 | 41.47721 | -94.39015 | 17924 ft | 292 kts | 274° |
| 2026-05-04 19:57 | 41.47855 | -94.41688 | 17611 ft | 287 kts | 274° |
| 2026-05-04 19:57 | 41.47989 | -94.44346 | 17325 ft | 287 kts | 274° |
| 2026-05-04 19:57 | 41.48122 | -94.46994 | 17059 ft | 286 kts | 274° |
| 2026-05-04 19:57 | 41.48254 | -94.49640 | 16790 ft | 285 kts | 274° |
| 2026-05-04 19:58 | 41.48385 | -94.52273 | 16520 ft | 283 kts | 274° |
| 2026-05-04 19:58 | 41.48514 | -94.54882 | 16222 ft | 281 kts | 274° |
| 2026-05-04 19:58 | 41.48640 | -94.57469 | 15896 ft | 279 kts | 274° |
| 2026-05-04 19:58 | 41.48765 | -94.60045 | 15566 ft | 278 kts | 274° |
| 2026-05-04 19:59 | 41.48887 | -94.62616 | 15231 ft | 278 kts | 274° |
| 2026-05-04 19:59 | 41.49011 | -94.65185 | 14890 ft | 278 kts | 274° |
| 2026-05-04 19:59 | 41.49136 | -94.67765 | 14535 ft | 279 kts | 273° |
| 2026-05-04 19:59 | 41.49260 | -94.70357 | 14200 ft | 280 kts | 274° |
| 2026-05-04 20:00 | 41.49383 | -94.72956 | 13848 ft | 282 kts | 273° |
| 2026-05-04 20:00 | 41.49505 | -94.75576 | 13493 ft | 283 kts | 273° |
| 2026-05-04 20:00 | 41.49627 | -94.78164 | 13110 ft | 284 kts | 273° |
| 2026-05-04 20:00 | 41.49751 | -94.80793 | 12730 ft | 284 kts | 273° |
| 2026-05-04 20:01 | 41.49876 | -94.83425 | 12356 ft | 284 kts | 273° |
| 2026-05-04 20:01 | 41.49997 | -94.86059 | 11978 ft | 285 kts | 273° |
| 2026-05-04 20:01 | 41.50119 | -94.88699 | 11591 ft | 285 kts | 273° |
| 2026-05-04 20:01 | 41.50239 | -94.91348 | 11217 ft | 286 kts | 273° |
| 2026-05-04 20:02 | 41.50362 | -94.94006 | 10840 ft | 286 kts | 273° |
| 2026-05-04 20:02 | 41.50442 | -94.95746 | 10583 ft | 282 kts | 273° |
| 2026-05-04 20:02 | 41.50560 | -94.98330 | 10216 ft | 277 kts | 273° |
| 2026-05-04 20:02 | 41.50676 | -95.00873 | 9865 ft | 271 kts | 273° |
| 2026-05-04 20:03 | 41.50787 | -95.03363 | 9504 ft | 267 kts | 273° |
| 2026-05-04 20:03 | 41.50896 | -95.05835 | 9112 ft | 267 kts | 273° |
| 2026-05-04 20:03 | 41.51007 | -95.08313 | 8733 ft | 267 kts | 273° |
| 2026-05-04 20:03 | 41.51118 | -95.10792 | 8362 ft | 268 kts | 274° |
| 2026-05-04 20:04 | 41.51227 | -95.13255 | 7999 ft | 264 kts | 274° |
| 2026-05-04 20:04 | 41.51113 | -95.15676 | 7761 ft | 265 kts | 257° |
| 2026-05-04 20:04 | 41.50534 | -95.18015 | 7629 ft | 266 kts | 252° |
| 2026-05-04 20:04 | 41.49911 | -95.20333 | 7516 ft | 265 kts | 252° |
| 2026-05-04 20:05 | 41.49301 | -95.22650 | 7399 ft | 265 kts | 253° |
| 2026-05-04 20:05 | 41.48698 | -95.24976 | 7296 ft | 266 kts | 253° |
| 2026-05-04 20:05 | 41.48103 | -95.27306 | 7167 ft | 265 kts | 253° |
| 2026-05-04 20:05 | 41.47512 | -95.29631 | 7074 ft | 264 kts | 253° |
| 2026-05-04 20:06 | 41.46923 | -95.31955 | 6967 ft | 266 kts | 253° |
| 2026-05-04 20:06 | 41.46341 | -95.34286 | 6863 ft | 264 kts | 253° |
| 2026-05-04 20:06 | 41.45520 | -95.36455 | 6478 ft | 266 kts | 233° |
| 2026-05-04 20:06 | 41.44057 | -95.37990 | 6012 ft | 274 kts | 210° |
| 2026-05-04 20:07 | 41.42264 | -95.38927 | 5531 ft | 278 kts | 202° |
| 2026-05-04 20:07 | 41.40428 | -95.39760 | 5073 ft | 279 kts | 202° |
| 2026-05-04 20:07 | 41.38589 | -95.40575 | 4611 ft | 279 kts | 202° |
| 2026-05-04 20:07 | 41.36747 | -95.41382 | 4165 ft | 278 kts | 201° |
| 2026-05-04 20:08 | 41.34941 | -95.42279 | 3736 ft | 275 kts | 209° |
| 2026-05-04 20:08 | 41.33233 | -95.43422 | 3321 ft | 274 kts | 213° |
| 2026-05-04 20:08 | 41.31674 | -95.44857 | 3032 ft | 270 kts | 220° |
| 2026-05-04 20:08 | 41.30197 | -95.46380 | 2961 ft | 273 kts | 222° |
| 2026-05-04 20:09 | 41.28699 | -95.47917 | 2957 ft | 271 kts | 221° |
| 2026-05-04 20:09 | 41.27219 | -95.49463 | 2969 ft | 269 kts | 222° |
| 2026-05-04 20:09 | 41.25756 | -95.51017 | 2968 ft | 269 kts | 224° |
| 2026-05-04 20:09 | 41.24422 | -95.52749 | 2983 ft | 268 kts | 230° |
| 2026-05-04 20:10 | 41.23177 | -95.54586 | 2992 ft | 267 kts | 233° |
| 2026-05-04 20:10 | 41.21954 | -95.56425 | 2984 ft | 265 kts | 233° |
| 2026-05-04 20:10 | 41.20732 | -95.58267 | 2978 ft | 263 kts | 233° |
| 2026-05-04 20:10 | 41.19628 | -95.60188 | 2971 ft | 258 kts | 241° |
| 2026-05-04 20:11 | 41.18707 | -95.62254 | 2988 ft | 260 kts | 243° |
| 2026-05-04 20:11 | 41.17803 | -95.64322 | 3005 ft | 259 kts | 243° |
| 2026-05-04 20:11 | 41.16892 | -95.66401 | 3006 ft | 260 kts | 243° |
| 2026-05-04 20:11 | 41.15969 | -95.68492 | 2999 ft | 260 kts | 243° |
| 2026-05-04 20:12 | 41.15148 | -95.70546 | 3004 ft | 243 kts | 253° |
| 2026-05-04 20:12 | 41.14814 | -95.72636 | 2962 ft | 221 kts | 275° |
| 2026-05-04 20:12 | 41.15185 | -95.74462 | 2968 ft | 199 kts | 305° |
| 2026-05-04 20:12 | 41.16130 | -95.75784 | 2995 ft | 198 kts | 322° |
| 2026-05-04 20:13 | 41.17223 | -95.76821 | 2985 ft | 183 kts | 328° |
| 2026-05-04 20:13 | 41.18255 | -95.77710 | 2990 ft | 178 kts | 327° |
| 2026-05-04 20:13 | 41.19279 | -95.78622 | 3064 ft | 177 kts | 328° |
| 2026-05-04 20:13 | 41.20291 | -95.79553 | 3056 ft | 173 kts | 326° |
| 2026-05-04 20:14 | 41.21208 | -95.80416 | 2952 ft | 155 kts | 326° |
| 2026-05-04 20:14 | 41.22040 | -95.81207 | 2777 ft | 140 kts | 325° |
| 2026-05-04 20:14 | 41.22810 | -95.81934 | 2576 ft | 133 kts | 326° |
| 2026-05-04 20:14 | 41.23557 | -95.82643 | 2404 ft | 132 kts | 327° |
| 2026-05-04 20:15 | 41.24307 | -95.83355 | 2234 ft | 132 kts | 327° |
| 2026-05-04 20:15 | 41.25038 | -95.84050 | 2070 ft | 126 kts | 328° |
| 2026-05-04 20:15 | 41.25742 | -95.84750 | 1877 ft | 126 kts | 327° |
| 2026-05-04 20:15 | 41.26455 | -95.85452 | 1804 ft | 130 kts | 328° |
| 2026-05-04 20:16 | 41.27195 | -95.86145 | 1624 ft | 130 kts | 328° |
| 2026-05-04 20:16 | 41.27942 | -95.86830 | 1460 ft | 130 kts | 327° |
| 2026-05-04 20:16 | 41.28677 | -95.87518 | 1221 ft | 129 kts | 328° |
| 2026-05-04 20:16 | 41.29412 | -95.88200 | 1047 ft | 129 kts | 327° |
| 2026-05-04 20:17 | 41.30083 | -95.88835 | 995 ft | 97 kts | 324° |
| 2026-05-04 20:17 | 41.30469 | -95.89203 | 995 ft | 41 kts | 324° |
| 2026-05-04 20:17 | 41.30685 | -95.89410 | 993 ft | 39 kts | 324° |
| 2026-05-04 20:17 | 41.30888 | -95.89601 | 993 ft | 35 kts | 324° |
| 2026-05-04 20:18 | 41.30988 | -95.89707 | 991 ft | 14 kts | 296° |
| 2026-05-04 20:18 | 41.30957 | -95.89828 | 994 ft | 16 kts | 232° |
| 2026-05-04 20:18 | 41.30889 | -95.89954 | 998 ft | 18 kts | 234° |
| 2026-05-04 20:18 | 41.30814 | -95.90092 | 990 ft | 18 kts | 234° |
| 2026-05-04 20:19 | 41.30771 | -95.90169 | 995 ft | 7 kts | 215° |
| 2026-05-04 20:19 | 41.30710 | -95.90150 | 991 ft | 12 kts | 146° |
| 2026-05-04 20:19 | 41.30630 | -95.90073 | 996 ft | 15 kts | 144° |
| 2026-05-04 20:19 | 41.30537 | -95.89985 | 992 ft | 17 kts | 144° |
| 2026-05-04 20:20 | 41.30437 | -95.89890 | 993 ft | 14 kts | 145° |
| 2026-05-04 20:20 | 41.30363 | -95.89822 | 994 ft | 8 kts | 153° |
| 2026-05-04 20:20 | 41.30307 | -95.89833 | 995 ft | 6 kts | 227° |
| 2026-05-04 20:20 | 41.30297 | -95.89853 | 994 ft | 2 kts | 238° |
| 2026-05-04 20:21 | 41.30284 | -95.89878 | 993 ft | 5 kts | 235° |
| 2026-05-04 20:21 | 41.30251 | -95.89917 | 994 ft | 8 kts | 201° |
| 2026-05-04 20:21 | 41.30182 | -95.89908 | 994 ft | 0 kts | 163° |